Time;durP1;ratioP1;P1;durP2;ratioP2;P2;SDS_P1;SDS_P2;PMS_P1;PMS_P2;Temp;Humidity;BMP_temperature;BMP_pressure;BME280_temperature;BME280_humidity;BME280_pressure;Samples;Min_cycle;Max_cycle;Signal;HPM_P1;HPM_P2
2023/01/07 00:02:15;;;;;;;1.00;0.50;;;;;;;9.10;83.88;99176.47;4976619;28;20244;-63
2023/01/07 00:04:41;;;;;;;1.03;0.70;;;;;;;9.11;84.37;99177.31;4979238;28;20225;-63
2023/01/07 00:07:08;;;;;;;1.53;0.87;;;;;;;9.09;85.87;99185.25;4974726;28;20742;-62
2023/01/07 00:09:34;;;;;;;2.10;0.67;;;;;;;9.08;85.29;99175.78;4978783;28;20225;-62
2023/01/07 00:12:01;;;;;;;0.90;0.63;;;;;;;9.09;86.73;99176.63;4976757;28;20783;-63
2023/01/07 00:14:27;;;;;;;0.63;0.53;;;;;;;9.08;86.88;99173.16;4979464;28;20237;-63
2023/01/07 00:16:54;;;;;;;1.57;0.60;;;;;;;9.07;85.92;99175.91;4977980;28;20300;-62
2023/01/07 00:19:23;;;;;;;1.17;0.70;;;;;;;9.06;85.51;99163.84;4978792;28;20250;-63
2023/01/07 00:21:49;;;;;;;1.93;0.80;;;;;;;9.08;87.63;99161.94;4977667;28;20229;-63
2023/01/07 00:24:16;;;;;;;1.13;0.73;;;;;;;9.05;87.72;99162.19;4974260;28;20311;-63
2023/01/07 00:26:42;;;;;;;0.70;0.50;;;;;;;9.04;83.35;99158.75;4979112;28;20241;-63
2023/01/07 00:29:09;;;;;;;0.63;0.63;;;;;;;9.05;82.60;99159.59;4974857;28;20241;-62
2023/01/07 00:31:38;;;;;;;1.07;0.80;;;;;;;9.04;83.71;99150.94;4977474;28;20237;-62
2023/01/07 00:34:08;;;;;;;0.70;0.50;;;;;;;9.05;84.46;99151.78;4976329;28;20597;-63
2023/01/07 00:36:39;;;;;;;1.33;0.70;;;;;;;9.05;82.94;99147.38;4977786;28;20281;-63
2023/01/07 00:39:08;;;;;;;0.77;0.47;;;;;;;9.07;83.09;99147.28;4984306;28;20233;-63
2023/01/07 00:41:35;;;;;;;1.13;0.60;;;;;;;9.03;82.32;99144.09;4977811;28;20229;-63
2023/01/07 00:44:03;;;;;;;1.37;0.70;;;;;;;9.05;85.03;99151.78;4974626;28;20225;-63
2023/01/07 00:46:30;;;;;;;3.83;0.80;;;;;;;9.01;86.75;99136.41;4977913;28;20222;-63
2023/01/07 00:48:56;;;;;;;3.90;0.80;;;;;;;8.98;87.59;99136.66;4981634;28;20292;-62
2023/01/07 00:51:23;;;;;;;0.87;0.60;;;;;;;8.98;87.41;99131.47;4976781;28;20605;-62
2023/01/07 00:53:51;;;;;;;0.90;0.60;;;;;;;9.01;88.34;99133.81;4977122;28;20252;-62
2023/01/07 00:56:18;;;;;;;3.33;0.60;;;;;;;8.95;88.05;99130.91;4975553;28;20237;-62
2023/01/07 00:58:45;;;;;;;1.53;0.70;;;;;;;8.92;87.56;99125.97;4978070;28;20676;-63
2023/01/07 01:01:13;;;;;;;1.47;0.70;;;;;;;8.94;85.57;99124.84;4974797;28;20249;-63
2023/01/07 01:03:40;;;;;;;2.77;0.80;;;;;;;8.96;85.03;99122.13;4976960;28;20229;-63
2023/01/07 01:06:09;;;;;;;1.10;0.60;;;;;;;8.97;84.22;99122.00;4973042;28;20230;-63
2023/01/07 01:08:35;;;;;;;3.10;1.30;;;;;;;9.00;83.19;99121.75;4976496;28;20731;-63
2023/01/07 01:11:04;;;;;;;1.20;0.70;;;;;;;8.98;85.91;99109.81;4971450;28;20233;-63
2023/01/07 01:13:31;;;;;;;0.80;0.60;;;;;;;8.95;88.43;99120.50;4977060;28;20356;-63
2023/01/07 01:15:58;;;;;;;2.83;0.60;;;;;;;8.89;87.38;99116.59;4972657;28;20226;-63
2023/01/07 01:18:24;;;;;;;1.63;0.60;;;;;;;8.86;88.65;99115.09;4977173;28;20323;-63
2023/01/07 01:20:51;;;;;;;2.13;0.70;;;;;;;8.85;87.50;99112.59;4987638;28;21191;-63
2023/01/07 01:23:18;;;;;;;0.87;0.57;;;;;;;8.89;87.12;99106.19;4975199;28;20301;-62
2023/01/07 01:25:44;;;;;;;1.23;0.70;;;;;;;8.90;87.06;99109.63;4990842;28;20248;-62
2023/01/07 01:28:12;;;;;;;1.67;0.90;;;;;;;8.85;90.18;99113.44;4976054;28;20242;-62
2023/01/07 01:30:39;;;;;;;3.60;1.10;;;;;;;8.84;90.19;99114.41;4993289;28;20240;-62
2023/01/07 01:33:07;;;;;;;1.87;0.80;;;;;;;8.82;91.02;99111.09;4979978;28;20324;-62
2023/01/07 01:35:38;;;;;;;1.43;0.97;;;;;;;8.81;91.23;99108.59;4976229;28;20233;-62
2023/01/07 01:38:05;;;;;;;3.17;0.80;;;;;;;8.79;92.40;99106.16;4974279;28;20254;-62
2023/01/07 01:40:32;;;;;;;1.43;0.80;;;;;;;8.75;92.19;99115.16;4985438;28;20748;-63
2023/01/07 01:42:59;;;;;;;1.07;0.50;;;;;;;8.72;92.79;99107.59;4971813;28;20592;-63
2023/01/07 01:45:28;;;;;;;1.30;0.63;;;;;;;8.69;93.51;99106.06;4991427;28;20235;-63
2023/01/07 01:47:59;;;;;;;1.63;1.03;;;;;;;8.65;91.74;99109.06;4973396;28;20222;-63
2023/01/07 01:50:32;;;;;;;0.87;0.70;;;;;;;8.67;92.16;99107.97;4991774;28;20311;-62
2023/01/07 01:53:04;;;;;;;0.90;0.50;;;;;;;8.68;92.08;99103.59;4989337;28;20277;-63
2023/01/07 01:55:36;;;;;;;1.07;0.90;;;;;;;8.65;93.17;99102.06;4974871;28;20242;-63
2023/01/07 01:58:08;;;;;;;1.10;0.63;;;;;;;8.71;91.06;99095.53;4971835;28;20616;-63
2023/01/07 02:00:36;;;;;;;2.43;0.73;;;;;;;8.69;89.94;99102.66;4992977;28;20241;-63
2023/01/07 02:03:09;;;;;;;1.77;0.50;;;;;;;8.67;90.32;99097.56;4971310;28;20324;-63
2023/01/07 02:05:39;;;;;;;1.63;0.73;;;;;;;8.67;91.81;99102.75;4990554;28;20640;-63
2023/01/07 02:08:05;;;;;;;2.53;0.90;;;;;;;8.67;91.54;99102.75;4971240;28;20233;-63
2023/01/07 02:10:34;;;;;;;1.83;0.80;;;;;;;8.70;89.43;99096.50;4972986;28;20238;-63
2023/01/07 02:13:21;;;;;;;1.20;0.80;;;;;;;8.70;88.30;99091.28;4971462;28;20719;-62
2023/01/07 02:15:56;;;;;;;1.23;0.80;;;;;;;8.75;85.07;99094.34;4977559;28;20751;-62
2023/01/07 02:18:54;;;;;;;3.17;0.73;;;;;;;8.77;84.09;99086.38;4989363;28;20268;-63
2023/01/07 02:21:32;;;;;;;1.47;0.53;;;;;;;8.77;83.71;99084.63;4986482;28;20241;-63
2023/01/07 02:24:30;;;;;;;1.67;0.60;;;;;;;8.77;82.36;99082.03;4971019;28;20792;-63
2023/01/07 02:27:10;;;;;;;1.00;0.60;;;;;;;8.78;82.03;99077.63;4969656;28;20343;-63
2023/01/07 02:30:14;;;;;;;1.03;0.70;;;;;;;8.82;81.34;99071.22;4991671;28;20238;-63
2023/01/07 02:33:06;;;;;;;0.90;0.70;;;;;;;8.82;81.69;99071.22;4989327;28;20245;-63
2023/01/07 02:35:49;;;;;;;1.60;0.50;;;;;;;8.82;80.53;99072.06;4985822;28;20240;-63
2023/01/07 02:38:24;;;;;;;3.20;0.60;;;;;;;8.84;82.04;99069.31;4973447;28;20249;-63
2023/01/07 02:40:58;;;;;;;0.90;0.60;;;;;;;8.83;81.14;99063.28;4976379;28;20601;-63
2023/01/07 02:43:36;;;;;;;2.43;0.63;;;;;;;8.81;82.22;99054.78;4972614;28;20237;-63
2023/01/07 02:46:12;;;;;;;1.23;0.57;;;;;;;8.80;85.00;99062.69;4987636;28;20238;-63
2023/01/07 02:48:41;;;;;;;2.33;0.60;;;;;;;8.78;85.31;99052.44;4992893;28;20245;-63
2023/01/07 02:51:08;;;;;;;0.70;0.50;;;;;;;8.77;85.71;99057.75;4978212;28;20292;-63
2023/01/07 02:53:35;;;;;;;1.33;0.47;;;;;;;8.71;85.12;99046.91;4982030;28;20760;-63
2023/01/07 02:56:17;;;;;;;1.10;0.50;;;;;;;8.70;85.42;99045.25;4972484;28;20300;-63
2023/01/07 02:59:14;;;;;;;2.10;0.60;;;;;;;8.65;86.80;99044.81;4974827;28;20796;-63
2023/01/07 03:01:57;;;;;;;2.57;0.60;;;;;;;8.64;87.03;99037.16;4937227;28;20613;-63
2023/01/07 03:04:47;;;;;;;0.67;0.63;;;;;;;8.58;86.22;99035.88;4971539;28;20239;-63
2023/01/07 03:07:25;;;;;;;1.77;1.10;;;;;;;8.57;86.70;99034.22;4971232;28;20236;-63
2023/01/07 03:10:01;;;;;;;0.73;0.47;;;;;;;8.58;87.37;99030.66;4987237;28;20247;-63
2023/01/07 03:12:32;;;;;;;2.27;0.70;;;;;;;8.55;86.48;99028.31;4974838;28;20244;-62
2023/01/07 03:15:07;;;;;;;1.43;0.67;;;;;;;8.52;87.04;99026.81;4969533;28;20236;-63
2023/01/07 03:17:39;;;;;;;1.90;0.60;;;;;;;8.47;87.02;99025.53;4975472;28;20260;-63
2023/01/07 03:20:09;;;;;;;1.57;0.60;;;;;;;8.44;87.40;99017.97;4971737;28;20225;-63
2023/01/07 03:22:41;;;;;;;1.23;0.53;;;;;;;8.44;87.41;99015.38;4974623;28;20236;-63
2023/01/07 03:25:09;;;;;;;2.30;0.50;;;;;;;8.44;88.39;99017.97;4971676;28;20686;-63
2023/01/07 03:27:36;;;;;;;1.47;0.50;;;;;;;8.42;88.95;99005.06;4977086;28;20241;-63
2023/01/07 03:30:07;;;;;;;3.33;0.50;;;;;;;8.45;89.70;99007.41;4977268;28;20233;-63
2023/01/07 03:32:40;;;;;;;2.57;0.40;;;;;;;8.41;88.06;99006.88;4979029;28;20225;-63
2023/01/07 03:35:09;;;;;;;0.60;0.50;;;;;;;8.45;87.27;99004.81;4976419;28;20224;-63
2023/01/07 03:37:37;;;;;;;1.00;0.70;;;;;;;8.42;87.49;99003.31;4977486;28;20729;-63
2023/01/07 03:40:09;;;;;;;1.43;0.80;;;;;;;8.42;88.95;99002.47;4975793;28;20229;-63
2023/01/07 03:42:38;;;;;;;1.33;0.60;;;;;;;8.38;90.50;98994.13;4993293;28;20591;-63
2023/01/07 03:45:09;;;;;;;0.90;0.60;;;;;;;8.34;90.39;98989.28;4978020;28;20320;-63
2023/01/07 03:47:37;;;;;;;1.63;0.50;;;;;;;8.33;88.28;98985.88;4996383;28;20246;-63
2023/01/07 03:50:05;;;;;;;0.70;0.60;;;;;;;8.31;88.32;98982.56;4974065;28;20233;-63
2023/01/07 03:52:33;;;;;;;4.17;0.80;;;;;;;8.33;88.73;98985.88;4977896;28;20238;-62
2023/01/07 03:54:59;;;;;;;0.90;0.50;;;;;;;8.33;87.87;98990.22;4978025;28;21249;-62
2023/01/07 03:57:27;;;;;;;0.87;0.50;;;;;;;8.32;88.10;98983.38;4978817;28;20307;-63
2023/01/07 03:59:56;;;;;;;2.77;0.80;;;;;;;8.31;88.71;98979.13;4974356;28;20313;-63
2023/01/07 04:02:22;;;;;;;0.53;0.40;;;;;;;8.27;88.80;98979.38;4985622;28;20252;-63
2023/01/07 04:04:49;;;;;;;1.33;0.50;;;;;;;8.28;89.58;98968.03;4984369;28;20249;-63
2023/01/07 04:07:16;;;;;;;3.23;0.50;;;;;;;8.28;90.60;98962.00;4977598;28;20222;-63
2023/01/07 04:09:46;;;;;;;0.80;0.43;;;;;;;8.25;89.99;98967.47;4976153;28;20245;-63
2023/01/07 04:12:13;;;;;;;3.13;0.67;;;;;;;8.25;90.74;98967.47;4989146;28;20289;-62
2023/01/07 04:14:40;;;;;;;1.63;0.40;;;;;;;8.25;90.28;98946.66;4976033;28;20258;-63
2023/01/07 04:17:06;;;;;;;0.80;0.50;;;;;;;8.26;90.14;98954.31;4975323;28;20261;-62
2023/01/07 04:19:33;;;;;;;1.33;0.47;;;;;;;8.29;89.31;98953.25;4978990;28;20240;-63
2023/01/07 04:21:59;;;;;;;3.13;0.60;;;;;;;8.26;89.37;98945.72;4989790;28;20229;-63
2023/01/07 04:24:26;;;;;;;0.57;0.50;;;;;;;8.27;89.37;98947.38;4993455;28;20225;-63
2023/01/07 04:26:54;;;;;;;2.43;0.60;;;;;;;8.27;90.14;98947.38;4971799;28;20229;-63
2023/01/07 04:29:21;;;;;;;2.17;0.70;;;;;;;8.27;89.41;98948.16;4992013;28;20241;-63
2023/01/07 04:31:48;;;;;;;0.50;0.50;;;;;;;8.28;90.23;98943.81;5188993;23;20275;-55
2023/01/07 04:34:15;;;;;;;1.20;0.50;;;;;;;8.28;90.21;98942.03;4990363;28;20983;-54
2023/01/07 04:36:42;;;;;;;1.90;0.60;;;;;;;8.27;88.85;98931.75;4990515;28;20605;-53
2023/01/07 04:39:09;;;;;;;2.83;0.50;;;;;;;8.28;88.97;98931.63;5004239;28;20666;-55
2023/01/07 04:41:36;;;;;;;0.67;0.50;;;;;;;8.31;90.09;98929.72;5010091;28;20240;-55
2023/01/07 04:44:05;;;;;;;1.10;0.53;;;;;;;8.29;89.31;98929.84;5006494;28;20252;-53
2023/01/07 04:46:33;;;;;;;0.63;0.50;;;;;;;8.33;89.80;98933.00;4991121;28;20249;-55
2023/01/07 04:49:00;;;;;;;2.40;0.50;;;;;;;8.32;89.89;98921.78;4987966;28;20317;-53
2023/01/07 04:51:26;;;;;;;1.40;0.60;;;;;;;8.34;89.54;98925.09;4980176;28;20232;-54
2023/01/07 04:53:55;;;;;;;2.53;0.50;;;;;;;8.34;90.02;98925.09;4976373;28;20292;-53
2023/01/07 04:56:22;;;;;;;1.70;0.47;;;;;;;8.34;90.60;98927.69;4984905;28;20327;-55
2023/01/07 04:58:49;;;;;;;3.17;0.60;;;;;;;8.33;90.04;98925.19;4983046;28;20376;-55
2023/01/07 05:01:18;;;;;;;0.77;0.60;;;;;;;8.33;89.42;98922.59;5004467;28;20232;-53
2023/01/07 05:03:45;;;;;;;0.93;0.60;;;;;;;8.33;88.31;98920.84;4977687;28;20778;-55
2023/01/07 05:06:11;;;;;;;0.50;0.30;;;;;;;8.34;85.34;98916.44;4971525;28;20233;-53
2023/01/07 05:08:39;;;;;;;0.53;0.30;;;;;;;8.38;85.44;98910.03;4978369;28;20325;-53
2023/01/07 05:11:05;;;;;;;0.43;0.30;;;;;;;8.38;84.88;98907.44;4974883;28;20314;-55
2023/01/07 05:13:34;;;;;;;0.67;0.40;;;;;;;8.38;86.33;98903.06;4969745;28;20280;-54
2023/01/07 05:16:02;;;;;;;0.50;0.43;;;;;;;8.39;86.18;98903.88;4977601;28;20225;-55
2023/01/07 05:18:31;;;;;;;0.47;0.40;;;;;;;8.37;86.69;98898.81;4976220;28;20236;-54
2023/01/07 05:20:58;;;;;;;0.70;0.40;;;;;;;8.39;87.38;98896.91;4995611;28;20664;-54
2023/01/07 05:23:25;;;;;;;5.50;0.50;;;;;;;8.37;88.38;98897.97;4994640;28;20335;-55
2023/01/07 05:25:52;;;;;;;0.97;0.67;;;;;;;8.37;86.89;98892.78;4985743;28;20740;-54
2023/01/07 05:28:19;;;;;;;1.43;0.73;;;;;;;8.36;87.44;98902.38;4997402;28;20245;-55
2023/01/07 05:30:46;;;;;;;1.00;0.70;;;;;;;8.37;88.61;98891.03;4996509;28;20256;-52
2023/01/07 05:33:13;;;;;;;3.83;0.80;;;;;;;8.36;89.48;98881.56;4987134;28;20240;-51
2023/01/07 05:35:42;;;;;;;1.30;0.83;;;;;;;8.35;88.31;98890.31;5006725;28;20309;-55
2023/01/07 05:38:08;;;;;;;1.57;0.90;;;;;;;8.33;88.75;98889.63;5004305;28;20269;-52
2023/01/07 05:40:36;;;;;;;1.37;0.83;;;;;;;8.33;88.88;98892.22;4987390;28;20233;-54
2023/01/07 05:43:06;;;;;;;0.80;0.80;;;;;;;8.34;88.30;98888.69;4960030;28;20239;-56
2023/01/07 05:45:42;;;;;;;1.30;0.93;;;;;;;8.34;88.63;98880.03;4942901;28;20661;-55
2023/01/07 05:48:20;;;;;;;4.30;0.90;;;;;;;8.31;88.66;98880.28;4939444;28;20247;-56
2023/01/07 05:50:56;;;;;;;1.47;0.80;;;;;;;8.29;89.31;98877.84;4982969;28;20233;-55
2023/01/07 05:53:24;;;;;;;0.90;0.60;;;;;;;8.30;88.98;98878.66;4938091;28;20619;-54
2023/01/07 05:56:02;;;;;;;0.57;0.50;;;;;;;8.28;88.43;98871.78;4977752;28;20311;-54
2023/01/07 05:58:38;;;;;;;0.90;0.60;;;;;;;8.30;89.78;98869.09;4969011;28;20236;-57
2023/01/07 06:01:06;;;;;;;4.87;0.83;;;;;;;8.27;88.76;98870.16;4960685;28;20658;-54
2023/01/07 06:03:41;;;;;;;0.93;0.53;;;;;;;8.31;88.34;98862.94;4999150;28;20229;-56
2023/01/07 06:06:11;;;;;;;0.60;0.40;;;;;;;8.30;88.59;98863.88;4975449;28;20231;-55
2023/01/07 06:08:42;;;;;;;2.93;1.60;;;;;;;8.31;88.00;98867.28;4980318;28;20241;-55
2023/01/07 06:11:23;;;;;;;0.90;0.40;;;;;;;8.30;88.08;98861.28;4903544;28;21479;-55
2023/01/07 06:13:51;;;;;;;1.83;0.40;;;;;;;8.30;87.84;98863.88;4950411;28;20593;-56
2023/01/07 06:16:23;;;;;;;1.73;1.03;;;;;;;8.32;88.59;98858.53;4981217;28;20327;-54
2023/01/07 06:18:54;;;;;;;2.13;0.60;;;;;;;8.28;88.79;98860.59;4976862;28;20830;-55
2023/01/07 06:21:23;;;;;;;6.20;3.43;;;;;;;8.26;88.99;98857.28;4948286;28;20246;-55
2023/01/07 06:23:52;;;;;;;2.87;2.30;;;;;;;8.25;89.24;98855.66;4961158;28;20234;-54
2023/01/07 06:26:29;;;;;;;1.40;1.30;;;;;;;8.25;88.74;98855.66;4959732;28;20746;-54
2023/01/07 06:29:03;;;;;;;1.67;1.20;;;;;;;8.23;88.09;98855.75;4966513;28;20235;-55
2023/01/07 06:31:34;;;;;;;1.47;0.80;;;;;;;8.18;87.60;98855.31;4986607;28;20883;-55
2023/01/07 06:34:07;;;;;;;1.43;0.70;;;;;;;8.23;88.75;98852.34;4910225;28;20246;-56
2023/01/07 06:36:36;;;;;;;1.20;0.80;;;;;;;8.19;90.05;98856.16;4982032;28;20229;-55
2023/01/07 06:39:03;;;;;;;4.07;1.30;;;;;;;8.20;89.27;98850.81;4989323;28;20226;-55
2023/01/07 06:41:30;;;;;;;4.93;1.50;;;;;;;8.22;88.88;98851.50;4994087;28;20803;-53
2023/01/07 06:43:56;;;;;;;4.77;2.00;;;;;;;8.23;89.08;98844.53;4986645;28;20651;-54
2023/01/07 06:46:23;;;;;;;5.40;1.63;;;;;;;8.25;88.25;98840.84;4992920;28;20246;-56
2023/01/07 06:48:49;;;;;;;3.03;1.50;;;;;;;8.28;88.31;98835.38;4992365;28;20303;-54
2023/01/07 06:51:16;;;;;;;1.03;0.57;;;;;;;8.30;88.32;98826.63;4986839;28;20657;-55
2023/01/07 06:53:44;;;;;;;0.47;0.30;;;;;;;8.27;87.83;98822.53;4991401;28;20719;-54
2023/01/07 06:56:10;;;;;;;1.10;0.70;;;;;;;8.28;87.12;98824.19;4987927;28;20248;-56
2023/01/07 06:58:37;;;;;;;1.27;0.50;;;;;;;8.27;87.66;98820.75;4992909;28;20234;-55
2023/01/07 07:01:05;;;;;;;2.83;0.70;;;;;;;8.28;86.73;98821.56;4993814;28;20307;-55
2023/01/07 07:03:31;;;;;;;0.97;0.50;;;;;;;8.28;86.00;98821.56;4992696;28;20235;-53
2023/01/07 07:05:58;;;;;;;0.50;0.40;;;;;;;8.29;86.56;98823.22;4991074;28;20388;-55
2023/01/07 07:08:25;;;;;;;0.60;0.50;;;;;;;8.28;86.94;98824.97;4993656;28;20237;-53
2023/01/07 07:10:53;;;;;;;0.40;0.30;;;;;;;8.28;87.94;98829.38;4993475;28;20287;-55
2023/01/07 07:13:19;;;;;;;2.30;0.40;;;;;;;8.26;88.29;98826.91;4991149;28;20236;-53
2023/01/07 07:15:46;;;;;;;2.90;0.50;;;;;;;8.28;87.93;98826.78;4991050;28;20303;-53
2023/01/07 07:18:12;;;;;;;4.13;2.60;;;;;;;8.26;87.98;98818.28;4988702;28;20280;-55
2023/01/07 07:20:39;;;;;;;8.17;5.53;;;;;;;8.30;85.93;98817.06;4992272;28;20237;-55
2023/01/07 07:23:05;;;;;;;3.13;1.93;;;;;;;8.39;83.95;98815.44;4991420;28;20752;-54
2023/01/07 07:25:32;;;;;;;32.10;16.23;;;;;;;8.45;81.79;98819.31;4991756;28;20793;-55
2023/01/07 07:28:00;;;;;;;19.53;10.50;;;;;;;8.46;82.21;98821.75;4987850;28;20291;-54
2023/01/07 07:30:26;;;;;;;34.90;18.30;;;;;;;8.47;82.36;98820.81;4989374;28;20232;-53
2023/01/07 07:32:53;;;;;;;1.43;1.07;;;;;;;8.49;82.29;98820.69;4990282;28;20217;-55
2023/01/07 07:35:20;;;;;;;41.37;22.63;;;;;;;8.50;82.66;98819.75;4994018;28;20298;-55
2023/01/07 07:37:46;;;;;;;21.63;11.33;;;;;;;8.49;82.50;98818.09;4994710;28;20229;-56
2023/01/07 07:40:13;;;;;;;16.63;10.13;;;;;;;8.49;81.96;98810.28;4989312;28;20239;-53
2023/01/07 07:42:40;;;;;;;4.70;3.70;;;;;;;8.51;83.34;98808.38;4993173;28;20245;-55
2023/01/07 07:45:09;;;;;;;4.63;3.00;;;;;;;8.51;82.00;98808.38;4985023;28;20237;-53
2023/01/07 07:47:35;;;;;;;6.80;6.10;;;;;;;8.54;81.73;98808.09;4991568;28;20863;-54
2023/01/07 07:50:03;;;;;;;5.33;4.03;;;;;;;8.55;81.82;98805.38;4991731;28;20253;-55
2023/01/07 07:52:30;;;;;;;3.47;3.00;;;;;;;8.52;81.48;98800.44;4988603;28;20973;-55
2023/01/07 07:54:56;;;;;;;3.70;2.50;;;;;;;8.54;82.82;98803.75;4991426;28;20299;-54
2023/01/07 07:57:23;;;;;;;1.60;1.40;;;;;;;8.54;82.52;98790.72;4985800;28;20212;-55
2023/01/07 07:59:49;;;;;;;1.10;0.90;;;;;;;8.52;82.77;98797.00;4989216;28;20254;-54
2023/01/07 08:02:18;;;;;;;0.82;0.60;;;;;;;8.56;83.19;98785.38;4991119;28;20529;-52
2023/01/07 08:04:44;;;;;;;0.83;0.80;;;;;;;8.56;82.96;98774.97;4990384;28;20242;-54
2023/01/07 08:07:12;;;;;;;0.60;0.47;;;;;;;8.59;82.53;98769.50;4994947;28;20616;-54
2023/01/07 08:09:38;;;;;;;1.30;0.70;;;;;;;8.61;81.39;98783.19;4989902;28;20283;-52
2023/01/07 08:12:06;;;;;;;2.40;1.00;;;;;;;8.62;81.37;98777.03;4994142;28;20778;-54
2023/01/07 08:14:32;;;;;;;2.70;0.80;;;;;;;8.68;81.42;98779.09;4992520;28;20230;-54
2023/01/07 08:16:59;;;;;;;1.00;0.73;;;;;;;8.69;80.89;98774.75;4997593;28;20225;-54
2023/01/07 08:19:26;;;;;;;1.83;1.38;;;;;;;8.70;81.84;98771.19;4994368;28;20821;-54
2023/01/07 08:21:53;;;;;;;0.70;0.70;;;;;;;8.73;80.71;98775.28;4997948;28;20590;-54
2023/01/07 08:24:20;;;;;;;1.33;0.50;;;;;;;8.76;81.69;98767.19;4995899;28;20216;-54
2023/01/07 08:26:46;;;;;;;1.10;0.80;;;;;;;8.74;79.62;98759.53;4999435;28;20299;-53
2023/01/07 08:29:13;;;;;;;1.80;1.00;;;;;;;8.79;78.69;98759.13;4995461;28;20319;-52
2023/01/07 08:31:39;;;;;;;0.73;0.67;;;;;;;8.82;78.97;98758.84;4990328;28;22260;-53
2023/01/07 08:34:06;;;;;;;0.87;0.70;;;;;;;8.84;78.24;98759.53;4996579;28;20901;-54
2023/01/07 08:36:34;;;;;;;0.97;0.80;;;;;;;8.88;78.10;98757.50;4995014;28;20220;-54
2023/01/07 08:39:00;;;;;;;2.50;0.90;;;;;;;8.89;77.30;98762.56;4997355;28;20240;-54
2023/01/07 08:41:27;;;;;;;1.27;1.07;;;;;;;8.92;76.66;98759.69;4995192;28;20228;-54
2023/01/07 08:43:54;;;;;;;1.70;1.10;;;;;;;8.96;77.00;98758.44;4997602;28;20718;-54
2023/01/07 08:46:20;;;;;;;1.17;1.00;;;;;;;8.99;76.76;98759.97;4990294;28;20762;-54
2023/01/07 08:48:47;;;;;;;1.53;1.10;;;;;;;9.00;77.29;98759.81;4996990;28;20699;-53
2023/01/07 08:51:13;;;;;;;1.37;0.97;;;;;;;9.03;75.47;98750.91;4994574;28;20730;-54
2023/01/07 08:53:41;;;;;;;2.03;1.30;;;;;;;9.08;75.85;98751.31;4993028;28;20237;-52
2023/01/07 08:56:08;;;;;;;1.60;1.30;;;;;;;9.09;76.17;98745.13;4997164;28;20228;-52
2023/01/07 08:58:34;;;;;;;1.80;1.20;;;;;;;9.19;74.35;98742.53;4993329;28;20221;-54
2023/01/07 09:01:02;;;;;;;3.47;1.93;;;;;;;9.28;74.08;98741.72;4996833;28;20723;-54
2023/01/07 09:03:29;;;;;;;2.37;1.73;;;;;;;9.42;75.05;98744.84;4992469;28;20589;-52
2023/01/07 09:05:55;;;;;;;5.23;3.00;;;;;;;9.49;73.66;98745.09;4996500;28;20228;-54
2023/01/07 09:08:22;;;;;;;5.23;4.00;;;;;;;9.48;73.55;98741.66;4992750;28;20826;-52
2023/01/07 09:10:50;;;;;;;5.97;4.67;;;;;;;9.57;73.11;98745.19;4995766;28;20255;-53
2023/01/07 09:13:16;;;;;;;22.73;19.83;;;;;;;9.63;72.80;98735.97;5013331;28;20323;-53
2023/01/07 09:15:44;;;;;;;9.10;6.23;;;;;;;9.66;72.34;98738.31;4994331;28;20282;-53
2023/01/07 09:18:11;;;;;;;6.70;6.00;;;;;;;9.75;71.46;98734.84;4995136;28;20238;-54
2023/01/07 09:20:38;;;;;;;4.47;2.90;;;;;;;9.72;70.65;98732.53;4992011;28;20242;-52
2023/01/07 09:23:04;;;;;;;3.23;2.50;;;;;;;9.80;70.84;98729.22;4997009;28;20269;-52
2023/01/07 09:25:31;;;;;;;2.20;2.00;;;;;;;9.95;70.12;98725.19;4992641;28;20230;-53
2023/01/07 09:27:58;;;;;;;2.93;2.20;;;;;;;9.93;70.67;98727.13;4996724;28;20238;-53
2023/01/07 09:30:25;;;;;;;2.37;1.70;;;;;;;10.03;69.83;98721.84;4993819;28;20301;-52
2023/01/07 09:32:52;;;;;;;3.93;1.80;;;;;;;10.05;70.28;98730.34;4995914;28;20238;-53
2023/01/07 09:35:18;;;;;;;3.03;1.57;;;;;;;9.97;68.95;98725.03;4997080;28;20230;-54
2023/01/07 09:37:45;;;;;;;5.83;1.50;;;;;;;10.07;68.49;98725.81;4993027;28;20237;-52
2023/01/07 09:40:21;;;;;;;2.03;1.60;;;;;;;10.15;68.90;98728.50;4996954;28;20229;-53
2023/01/07 09:42:53;;;;;;;2.30;1.50;;;;;;;10.19;68.27;98729.03;4992179;28;20307;-53
2023/01/07 09:45:24;;;;;;;2.23;1.40;;;;;;;10.19;68.48;98724.63;4994535;28;20231;-54
2023/01/07 09:47:56;;;;;;;2.47;1.60;;;;;;;10.22;67.49;98722.72;4993445;28;20229;-54
2023/01/07 09:50:35;;;;;;;2.97;1.70;;;;;;;10.31;66.90;98714.00;4993471;28;20226;-53
2023/01/07 09:53:06;;;;;;;2.57;1.67;;;;;;;10.32;67.31;98719.06;4995298;28;20234;-54
2023/01/07 09:55:35;;;;;;;2.63;1.60;;;;;;;10.38;69.43;98717.66;4992810;28;21211;-54
2023/01/07 09:58:01;;;;;;;3.33;1.87;;;;;;;10.42;66.95;98715.59;4995750;28;20234;-54
2023/01/07 10:00:32;;;;;;;3.77;1.80;;;;;;;10.56;66.95;98722.94;4992575;28;20222;-53
2023/01/07 10:03:17;;;;;;;2.37;1.50;;;;;;;10.52;66.45;98716.34;4996506;28;20230;-53
2023/01/07 10:05:55;;;;;;;2.60;2.00;;;;;;;10.63;65.87;98710.94;4992020;28;20245;-54
2023/01/07 10:08:34;;;;;;;6.53;3.83;;;;;;;10.69;65.27;98706.06;4990554;28;20240;-54
2023/01/07 10:11:15;;;;;;;3.20;2.53;;;;;;;10.56;65.00;98702.03;4995335;28;20243;-53
2023/01/07 10:13:58;;;;;;;2.70;1.40;;;;;;;10.71;66.61;98701.53;4991171;28;20235;-52
2023/01/07 10:16:38;;;;;;;2.07;1.10;;;;;;;10.75;64.31;98690.63;4993209;28;20225;-52
2023/01/07 10:19:13;;;;;;;2.73;1.40;;;;;;;10.77;64.85;98678.22;4996554;28;20631;-53
2023/01/07 10:21:46;;;;;;;2.83;1.20;;;;;;;10.91;65.50;98671.66;4990330;28;20731;-52
2023/01/07 10:24:25;;;;;;;1.80;1.30;;;;;;;10.97;63.22;98665.00;4994464;28;20235;-52
2023/01/07 10:26:54;;;;;;;3.10;1.77;;;;;;;10.96;63.20;98659.94;4993607;28;20237;-52
2023/01/07 10:29:29;;;;;;;1.87;1.27;;;;;;;11.03;64.00;98667.00;4991156;28;20227;-53
2023/01/07 10:32:03;;;;;;;1.80;1.40;;;;;;;11.16;64.17;98650.91;4995980;28;20242;-52
2023/01/07 10:34:37;;;;;;;2.17;1.10;;;;;;;11.31;63.03;98648.56;4991562;28;20660;-54
2023/01/07 10:37:11;;;;;;;2.03;1.33;;;;;;;11.32;63.01;98638.91;4994603;28;20255;-52
2023/01/07 10:39:51;;;;;;;1.87;1.40;;;;;;;11.43;63.16;98638.66;4991908;28;20235;-54
2023/01/07 10:42:25;;;;;;;1.80;1.20;;;;;;;11.47;62.95;98631.34;4996725;28;20748;-53
2023/01/07 10:45:20;;;;;;;2.13;1.33;;;;;;;11.37;63.35;98621.81;4993890;28;20745;-54
2023/01/07 10:48:00;;;;;;;1.43;1.20;;;;;;;11.42;62.96;98620.53;4992338;28;20235;-58
2023/01/07 10:50:46;;;;;;;1.73;1.00;;;;;;;11.47;62.93;98610.44;4991320;28;20235;-51
2023/01/07 10:53:22;;;;;;;3.53;1.30;;;;;;;11.57;64.35;98602.44;4993044;28;21689;-54
2023/01/07 10:55:57;;;;;;;1.60;1.20;;;;;;;11.53;63.07;98604.56;4993090;28;20304;-52
2023/01/07 10:58:26;;;;;;;2.27;1.30;;;;;;;11.58;63.91;98593.63;4992072;28;20286;-54
2023/01/07 11:00:52;;;;;;;2.00;1.40;;;;;;;11.57;63.32;98586.75;4996020;28;20239;-52
2023/01/07 11:03:22;;;;;;;3.73;1.30;;;;;;;11.70;63.67;98586.31;4995498;28;20219;-54
2023/01/07 11:05:54;;;;;;;2.07;1.50;;;;;;;11.84;63.30;98588.31;4993543;28;20238;-54
2023/01/07 11:08:29;;;;;;;1.63;1.40;;;;;;;11.78;62.86;98575.88;4988982;28;20238;-54
2023/01/07 11:10:55;;;;;;;2.10;1.70;;;;;;;11.81;62.60;98571.16;4992106;28;20243;-54
2023/01/07 11:13:26;;;;;;;2.83;1.50;;;;;;;11.76;62.66;98572.59;4988650;28;20730;-53
2023/01/07 11:15:56;;;;;;;10.63;2.23;;;;;;;11.82;62.74;98564.09;4993697;28;20227;-52
2023/01/07 11:18:31;;;;;;;3.20;2.10;;;;;;;11.79;63.17;98567.88;4991987;28;20686;-52
2023/01/07 11:20:59;;;;;;;3.28;2.30;;;;;;;11.80;63.83;98561.66;4990440;28;20857;-54
2023/01/07 11:23:34;;;;;;;3.30;1.53;;;;;;;11.69;63.13;98563.75;4990891;28;20232;-52
2023/01/07 11:26:08;;;;;;;3.07;1.63;;;;;;;11.61;63.59;98554.94;4992876;28;20241;-54
2023/01/07 11:28:36;;;;;;;3.33;1.77;;;;;;;11.52;63.55;98553.28;4990696;28;20224;-54
2023/01/07 11:31:03;;;;;;;2.67;1.57;;;;;;;11.54;65.28;98540.84;4993525;28;20262;-53
2023/01/07 11:33:37;;;;;;;2.07;1.50;;;;;;;11.53;64.47;98531.38;4991586;28;20570;-52
2023/01/07 11:36:05;;;;;;;4.23;1.77;;;;;;;11.52;63.12;98532.34;4994350;28;20239;-54
2023/01/07 11:38:34;;;;;;;2.30;1.60;;;;;;;11.55;64.44;98534.66;4991644;28;20232;-52
2023/01/07 11:41:02;;;;;;;4.67;2.00;;;;;;;11.52;62.80;98524.53;5013924;28;20322;-51
2023/01/07 11:43:32;;;;;;;5.00;3.00;;;;;;;11.40;63.52;98515.34;4990995;28;20304;-54
2023/01/07 11:46:01;;;;;;;6.90;3.13;;;;;;;11.51;64.26;98523.69;4992460;28;20243;-52
2023/01/07 11:48:30;;;;;;;3.70;1.97;;;;;;;11.51;63.47;98521.06;4989572;28;20231;-52
2023/01/07 11:51:00;;;;;;;2.33;1.43;;;;;;;11.60;63.59;98508.84;4996798;28;20567;-52
2023/01/07 11:53:34;;;;;;;4.27;1.97;;;;;;;11.50;63.02;98501.13;4994143;28;20215;-53